createdAt,value
2022-11-17T07:34:15.487Z,22.03
2022-11-17T08:39:41.371Z,21.07
2022-11-17T08:44:34.929Z,19.93
2022-11-17T09:11:54.604Z,14.73
2022-11-17T09:16:49.245Z,17.33
2022-11-17T09:21:43.003Z,17.40
2022-11-17T09:47:08.940Z,14.77
2022-11-17T09:52:08.219Z,15.30
2022-11-17T09:57:03.406Z,16.67
2022-11-17T10:01:57.168Z,15.37
2022-11-17T10:06:52.535Z,16.60
2022-11-17T10:11:47.505Z,15.53
2022-11-17T10:16:44.271Z,13.27
2022-11-17T10:21:39.280Z,13.00
2022-11-17T10:26:46.743Z,12.27
2022-11-17T10:31:45.281Z,12.47
2022-11-17T10:36:45.820Z,15.03
2022-11-17T10:41:47.900Z,17.00
2022-11-17T10:47:01.731Z,12.53
2022-11-17T10:52:07.495Z,14.17
2022-11-17T10:57:07.253Z,10.70
2022-11-17T11:02:28.529Z,12.67
2022-11-17T11:07:24.360Z,13.43
2022-11-17T11:12:26.487Z,8.90
2022-11-17T11:17:21.161Z,8.87
2022-11-17T11:22:28.388Z,9.43
2022-11-17T11:27:47.527Z,7.40
2022-11-17T11:32:48.747Z,10.13
2022-11-17T11:37:56.126Z,9.38
2022-11-17T11:42:59.763Z,6.40
2022-11-17T11:48:17.201Z,8.15
2022-11-17T11:53:20.121Z,6.13
2022-11-17T11:58:21.360Z,5.97
2022-11-17T12:03:22.424Z,6.97
2022-11-17T12:08:22.288Z,9.02
2022-11-17T12:13:20.472Z,8.73
2022-11-17T12:18:30.720Z,8.68
2022-11-17T12:23:50.685Z,9.70
2022-11-17T12:28:46.468Z,7.00
2022-11-17T12:34:17.959Z,6.95
2022-11-17T12:40:00.488Z,8.00
2022-11-17T12:45:03.394Z,7.93
2022-11-17T12:50:26.711Z,9.10
2022-11-17T12:55:27.037Z,8.13
2022-11-17T13:00:25.035Z,7.38
2022-11-17T13:05:22.522Z,10.52
2022-11-17T13:10:29.996Z,8.25
2022-11-17T13:15:25.912Z,9.35
2022-11-17T13:20:27.012Z,10.67
2022-11-17T13:25:24.010Z,10.10
2022-11-17T13:30:25.251Z,12.20
2022-11-17T13:35:24.417Z,11.50
2022-11-17T13:40:23.208Z,11.27
2022-11-17T13:45:17.714Z,9.50
2022-11-17T13:50:35.736Z,9.73
2022-11-17T13:55:31.164Z,9.67
2022-11-17T14:00:25.584Z,10.00
2022-11-17T14:05:26.653Z,9.97
2022-11-17T14:10:37.267Z,9.37
2022-11-17T14:15:33.032Z,9.13
2022-11-17T14:20:33.710Z,10.93
2022-11-17T14:25:27.425Z,10.67
2022-11-17T14:30:24.520Z,10.37
2022-11-17T14:40:19.251Z,8.63
2022-11-17T14:45:15.904Z,10.70
2022-11-17T14:50:13.528Z,10.17
2022-11-17T14:55:08.869Z,10.07
2022-11-17T15:00:05.594Z,9.43
2022-11-17T15:05:00.497Z,9.37
2022-11-17T15:09:54.418Z,11.27
2022-11-17T15:14:48.635Z,11.90
2022-11-17T15:19:44.185Z,10.30
2022-11-17T15:24:37.832Z,11.93
2022-11-17T15:29:31.661Z,11.67
2022-11-17T15:34:25.320Z,15.17
2022-11-17T15:39:21.318Z,21.27
2022-11-17T15:44:15.460Z,24.83
2022-11-17T15:49:09.246Z,23.20
2022-11-17T15:54:04.559Z,16.37
2022-11-17T15:59:03.395Z,15.33
2022-11-17T16:04:01.142Z,14.87
2022-11-17T16:08:55.575Z,14.27
2022-11-17T16:13:49.514Z,13.40
2022-11-17T16:18:45.087Z,15.57
2022-11-17T16:23:40.504Z,14.03
2022-11-17T16:28:34.640Z,26.20
2022-11-17T16:33:28.232Z,16.73
